Auburn, Mississippi
Current Conditions -  °F | °C
As of 10:53 PM on Friday 24 Oct 2014 (Local Time) from KMCB Reporting Station
Clear Clear  
Wind Chill: 15°   Ceiling: Unl
Heat Index: 15°   Visibility: 10mi
Dew Point:   Wind: 8mph
Humidity: 64%   Direction: 350°N
Pressure: 30.12"   Gusts: NA
Location:  31.3682°N, 90.6714°W
Report Text: KMCB 250353Z AUTO 35007KT 10SM CLR 15/08 A3012 RMK AO2 SLP198 T01500083
Loading
Personal Weather Stations






























Interactive Weather Map
Tropical Storm Tracking
New forecast layout! Learn more

10-Day Weather Forecast

Advertisements
Track Severe Weather on mobile